createdAt,value
2018-12-12T00:00:33.625Z,1012.19
2018-12-12T00:01:33.638Z,1012.16
2018-12-12T00:02:33.646Z,1012.19
2018-12-12T00:03:33.646Z,1012.17
2018-12-12T00:04:33.662Z,1012.16
2018-12-12T00:05:33.679Z,1012.10
2018-12-12T00:06:33.690Z,1012.08
2018-12-12T00:07:33.695Z,1012.09
2018-12-12T00:08:33.746Z,1012.10
2018-12-12T00:09:33.722Z,1012.11
2018-12-12T00:10:33.740Z,1012.10
2018-12-12T00:12:33.791Z,1012.13
2018-12-12T00:13:33.772Z,1012.11
2018-12-12T00:14:33.796Z,1012.09
2018-12-12T00:15:33.799Z,1012.08
2018-12-12T00:16:33.816Z,1012.13
2018-12-12T00:17:33.825Z,1012.11
2018-12-12T00:18:33.844Z,1012.13
2018-12-12T00:19:33.847Z,1012.11
2018-12-12T00:20:33.869Z,1012.05
2018-12-12T00:21:33.873Z,1012.07
2018-12-12T00:22:33.895Z,1012.08
2018-12-12T00:23:33.900Z,1012.12
2018-12-12T00:24:33.913Z,1012.08
2018-12-12T00:25:33.959Z,1012.09
2018-12-12T00:26:33.932Z,1012.10
2018-12-12T00:27:33.947Z,1012.09
2018-12-12T00:28:33.977Z,1012.10
2018-12-12T00:29:33.993Z,1012.07
2018-12-12T00:30:33.982Z,1012.04
2018-12-12T00:31:34.011Z,1012.04
2018-12-12T00:32:34.013Z,1012.03
2018-12-12T00:33:34.025Z,1012.06
2018-12-12T00:34:34.033Z,1012.07
2018-12-12T00:35:34.100Z,1012.10
2018-12-12T00:36:34.056Z,1012.07
2018-12-12T00:37:34.081Z,1012.05
2018-12-12T00:38:34.079Z,1012.04
2018-12-12T00:39:34.101Z,1012.08
2018-12-12T00:40:34.158Z,1012.04
2018-12-12T00:41:34.135Z,1012.05
2018-12-12T00:42:34.134Z,1012.03
2018-12-12T00:43:34.151Z,1012.02
2018-12-12T00:44:34.165Z,1012.00
2018-12-12T00:45:34.177Z,1011.99
2018-12-12T00:46:34.216Z,1011.97
2018-12-12T00:47:34.200Z,1011.96
2018-12-12T00:48:34.227Z,1011.93
2018-12-12T00:49:34.225Z,1011.92
2018-12-12T00:50:34.262Z,1011.91
2018-12-12T00:51:34.249Z,1011.95
2018-12-12T00:52:34.264Z,1011.92
2018-12-12T00:53:34.275Z,1011.93
2018-12-12T00:54:34.286Z,1011.89
2018-12-12T00:55:34.299Z,1011.94
2018-12-12T00:56:34.325Z,1011.93
2018-12-12T00:57:34.340Z,1011.95
2018-12-12T00:58:34.347Z,1011.99
2018-12-12T00:59:34.361Z,1012.00
2018-12-12T01:02:34.385Z,1012.05
2018-12-12T01:03:34.451Z,1012.04
2018-12-12T01:04:34.425Z,1012.06
2018-12-12T01:05:34.438Z,1012.03
2018-12-12T01:06:34.444Z,1012.05
2018-12-12T01:07:34.453Z,1012.05
2018-12-12T01:08:34.466Z,1012.06
2018-12-12T01:09:34.477Z,1012.07
2018-12-12T01:10:34.485Z,1012.09
2018-12-12T01:11:34.500Z,1012.03
2018-12-12T01:12:34.527Z,1012.05
2018-12-12T01:13:34.530Z,1012.01
2018-12-12T01:14:34.549Z,1012.01
2018-12-12T01:15:34.567Z,1012.02
2018-12-12T01:16:34.591Z,1012.02
2018-12-12T01:17:34.578Z,1012.05
2018-12-12T01:18:34.587Z,1012.04
2018-12-12T01:19:34.601Z,1012.03
2018-12-12T01:20:34.615Z,1012.03
2018-12-12T01:21:34.639Z,1012.05
2018-12-12T01:22:34.644Z,1012.00
2018-12-12T01:23:34.654Z,1011.99
2018-12-12T01:24:34.668Z,1012.01
2018-12-12T01:25:34.685Z,1011.99
2018-12-12T01:26:34.696Z,1011.97
2018-12-12T01:27:34.704Z,1011.96
2018-12-12T01:28:34.715Z,1011.97
2018-12-12T01:29:34.734Z,1012.02
2018-12-12T01:30:34.737Z,1011.97
2018-12-12T01:31:34.753Z,1011.94
2018-12-12T01:32:34.773Z,1011.97
2018-12-12T01:33:34.782Z,1011.96
2018-12-12T01:34:34.801Z,1011.99
2018-12-12T01:35:34.809Z,1012.00
2018-12-12T01:36:34.822Z,1012.02
2018-12-12T01:37:34.832Z,1012.02
2018-12-12T01:38:34.837Z,1012.05
2018-12-12T01:39:34.857Z,1012.01
2018-12-12T01:40:34.874Z,1012.02
2018-12-12T01:41:34.883Z,1012.00
2018-12-12T01:42:34.894Z,1012.03
2018-12-12T01:43:34.911Z,1011.98
2018-12-12T01:44:34.918Z,1012.00
2018-12-12T01:45:34.931Z,1011.97
2018-12-12T01:46:34.951Z,1011.95
2018-12-12T01:47:34.971Z,1011.95
2018-12-12T01:49:34.980Z,1011.95
2018-12-12T01:50:34.990Z,1011.92
2018-12-12T01:51:35.016Z,1011.96
2018-12-12T01:52:35.018Z,1011.97
2018-12-12T01:53:35.030Z,1011.97
2018-12-12T01:54:35.044Z,1011.94
2018-12-12T01:55:35.053Z,1011.93
2018-12-12T01:56:35.066Z,1011.95
2018-12-12T01:57:35.098Z,1011.97
2018-12-12T01:58:35.091Z,1012.02
2018-12-12T01:59:35.101Z,1011.98
2018-12-12T02:00:35.121Z,1011.95
2018-12-12T02:01:35.131Z,1011.94
2018-12-12T02:02:35.146Z,1011.95
2018-12-12T02:03:35.179Z,1011.96
2018-12-12T02:04:35.180Z,1011.98
2018-12-12T02:05:35.206Z,1011.94
2018-12-12T02:06:35.187Z,1011.99
2018-12-12T02:07:35.228Z,1011.96
2018-12-12T02:08:35.225Z,1011.98
2018-12-12T02:09:35.231Z,1011.95
2018-12-12T02:10:35.244Z,1012.00
2018-12-12T02:11:35.249Z,1012.01
2018-12-12T02:12:35.266Z,1012.02
2018-12-12T02:13:35.289Z,1012.04
2018-12-12T02:14:35.291Z,1012.02
2018-12-12T02:15:35.314Z,1012.02
2018-12-12T02:16:35.320Z,1012.01
2018-12-12T02:17:35.333Z,1012.01
2018-12-12T02:18:35.341Z,1011.99
2018-12-12T02:19:35.360Z,1012.01
2018-12-12T02:20:35.374Z,1012.02
2018-12-12T02:21:35.380Z,1012.02
2018-12-12T02:22:35.390Z,1012.01
2018-12-12T02:23:35.401Z,1012.01
2018-12-12T02:24:35.411Z,1012.05
2018-12-12T02:25:35.423Z,1012.04
2018-12-12T02:26:35.437Z,1012.04
2018-12-12T02:27:35.456Z,1012.03
2018-12-12T02:28:35.476Z,1012.01
2018-12-12T02:29:35.481Z,1012.00
2018-12-12T02:30:35.486Z,1011.97
2018-12-12T02:32:35.513Z,1011.97
2018-12-12T02:33:35.640Z,1011.98
2018-12-12T02:34:35.537Z,1011.98
2018-12-12T02:35:35.551Z,1011.97
2018-12-12T02:36:35.565Z,1011.95
2018-12-12T02:37:35.598Z,1011.98
2018-12-12T02:38:35.582Z,1011.89
2018-12-12T02:39:35.597Z,1011.88
2018-12-12T02:40:35.611Z,1011.86
2018-12-12T02:41:35.631Z,1011.83
2018-12-12T02:42:35.635Z,1011.83
2018-12-12T02:43:35.651Z,1011.85
2018-12-12T02:44:35.668Z,1011.84
2018-12-12T02:45:35.674Z,1011.88
2018-12-12T02:46:35.690Z,1011.88
2018-12-12T02:47:35.698Z,1011.85
2018-12-12T02:48:35.768Z,1011.88
2018-12-12T02:49:35.722Z,1011.94
2018-12-12T02:50:35.849Z,1011.90
2018-12-12T02:51:35.760Z,1011.92
2018-12-12T02:52:35.766Z,1011.91
2018-12-12T02:53:35.778Z,1011.93
2018-12-12T02:54:35.789Z,1011.92
2018-12-12T02:55:35.801Z,1011.89
2018-12-12T02:56:35.838Z,1011.89
2018-12-12T02:57:35.828Z,1011.91
2018-12-12T02:58:35.827Z,1011.87
2018-12-12T02:59:35.862Z,1011.87
2018-12-12T03:00:35.887Z,1011.87
2018-12-12T03:01:35.881Z,1011.90
2018-12-12T03:02:35.880Z,1011.90
2018-12-12T03:03:35.898Z,1011.92
2018-12-12T03:04:35.908Z,1011.90
2018-12-12T03:05:35.932Z,1011.90
2018-12-12T03:06:35.931Z,1011.92
2018-12-12T03:07:35.949Z,1011.88
2018-12-12T03:08:35.952Z,1011.84
2018-12-12T03:09:35.965Z,1011.86
2018-12-12T03:10:35.975Z,1011.87
2018-12-12T03:11:35.999Z,1011.89
2018-12-12T03:12:36.009Z,1011.91
2018-12-12T03:13:36.016Z,1011.91
2018-12-12T03:14:36.046Z,1011.87
2018-12-12T03:15:36.039Z,1011.89
2018-12-12T03:16:36.055Z,1011.89
2018-12-12T03:17:36.072Z,1011.87
2018-12-12T03:18:36.083Z,1011.87
2018-12-12T03:19:36.086Z,1011.88
2018-12-12T03:20:36.099Z,1011.86
2018-12-12T03:21:36.113Z,1011.89
2018-12-12T03:22:36.159Z,1011.85
2018-12-12T03:23:36.143Z,1011.86
2018-12-12T03:24:36.151Z,1011.87
2018-12-12T03:25:36.166Z,1011.84
2018-12-12T03:26:36.180Z,1011.87
2018-12-12T03:27:36.191Z,1011.85
2018-12-12T03:28:36.201Z,1011.86
2018-12-12T03:29:36.223Z,1011.89
2018-12-12T03:30:36.233Z,1011.89
2018-12-12T03:31:36.256Z,1011.87
2018-12-12T03:32:36.252Z,1011.86
2018-12-12T03:33:36.269Z,1011.84
2018-12-12T03:34:36.282Z,1011.84
2018-12-12T03:35:36.292Z,1011.84
2018-12-12T03:36:36.303Z,1011.87
2018-12-12T03:37:36.314Z,1011.84
2018-12-12T03:38:36.325Z,1011.80
2018-12-12T03:39:36.339Z,1011.83
2018-12-12T03:40:36.350Z,1011.83
2018-12-12T03:41:36.380Z,1011.82
2018-12-12T03:42:36.399Z,1011.78
2018-12-12T03:43:36.394Z,1011.75
2018-12-12T03:44:36.408Z,1011.78
2018-12-12T03:45:36.414Z,1011.80
2018-12-12T03:46:36.428Z,1011.80
2018-12-12T03:47:36.443Z,1011.84
2018-12-12T03:48:36.455Z,1011.85
2018-12-12T03:49:36.461Z,1011.84
2018-12-12T03:50:36.474Z,1011.81
2018-12-12T03:51:36.492Z,1011.87
2018-12-12T03:52:36.605Z,1011.86
2018-12-12T03:53:36.526Z,1011.88
2018-12-12T03:54:36.527Z,1011.85
2018-12-12T03:55:36.562Z,1011.86
2018-12-12T03:56:36.561Z,1011.84
2018-12-12T03:58:36.578Z,1011.86
2018-12-12T03:59:36.585Z,1011.77
2018-12-12T04:00:36.603Z,1011.82
2018-12-12T04:01:36.610Z,1011.75
2018-12-12T04:02:36.630Z,1011.82
2018-12-12T04:03:36.634Z,1011.80
2018-12-12T04:04:36.655Z,1011.82
2018-12-12T04:05:36.668Z,1011.80
2018-12-12T04:06:36.678Z,1011.81
2018-12-12T04:07:36.685Z,1011.85
2018-12-12T04:08:36.714Z,1011.86
2018-12-12T04:09:36.798Z,1011.84
2018-12-12T04:10:36.729Z,1011.85
2018-12-12T04:11:36.752Z,1011.80
2018-12-12T04:12:36.757Z,1011.84
2018-12-12T04:13:36.765Z,1011.86
2018-12-12T04:14:36.777Z,1011.88
2018-12-12T04:15:36.786Z,1011.91
2018-12-12T04:17:36.817Z,1011.92
2018-12-12T04:18:36.825Z,1011.92
2018-12-12T04:19:36.859Z,1011.94
2018-12-12T04:20:36.862Z,1011.94
2018-12-12T04:21:36.859Z,1012.00
2018-12-12T04:22:36.872Z,1012.00
2018-12-12T04:23:36.886Z,1011.97
2018-12-12T04:24:36.960Z,1011.98
2018-12-12T04:25:36.916Z,1011.97
2018-12-12T04:26:37.042Z,1011.94
2018-12-12T04:27:36.936Z,1011.94
2018-12-12T04:28:36.950Z,1011.99
2018-12-12T04:29:36.956Z,1012.02
2018-12-12T04:30:36.975Z,1012.02
2018-12-12T04:31:37.011Z,1012.02
2018-12-12T04:32:37.011Z,1012.08
2018-12-12T04:33:37.027Z,1012.08
2018-12-12T04:34:37.066Z,1012.03
2018-12-12T04:35:37.061Z,1012.10
2018-12-12T04:36:37.047Z,1012.13
2018-12-12T04:37:37.066Z,1012.11
2018-12-12T04:38:37.085Z,1012.09
2018-12-12T04:39:37.086Z,1012.14
2018-12-12T04:40:37.108Z,1012.11
2018-12-12T04:41:37.132Z,1012.12
2018-12-12T04:42:37.118Z,1012.13
2018-12-12T04:43:37.133Z,1012.08
2018-12-12T04:44:37.143Z,1012.09
2018-12-12T04:45:37.164Z,1012.06
2018-12-12T04:46:37.164Z,1012.06
2018-12-12T04:48:37.193Z,1012.08
2018-12-12T04:49:37.203Z,1012.07
2018-12-12T04:50:37.213Z,1012.10
2018-12-12T04:51:37.228Z,1012.07
2018-12-12T04:52:37.242Z,1012.08
2018-12-12T04:53:37.271Z,1012.07
2018-12-12T04:54:37.265Z,1012.03
2018-12-12T04:55:37.290Z,1012.03
2018-12-12T04:56:37.297Z,1012.00
2018-12-12T04:57:37.310Z,1011.98
2018-12-12T04:58:37.453Z,1012.02
2018-12-12T04:59:37.327Z,1012.00
2018-12-12T05:00:37.334Z,1012.00
2018-12-12T05:01:37.350Z,1012.01
2018-12-12T05:02:37.394Z,1011.98
2018-12-12T05:03:37.377Z,1011.99
2018-12-12T05:04:37.395Z,1012.00
2018-12-12T05:05:37.416Z,1011.99
2018-12-12T05:06:37.412Z,1012.01
2018-12-12T05:07:37.429Z,1012.00
2018-12-12T05:08:37.435Z,1011.98
2018-12-12T05:09:37.460Z,1012.01
2018-12-12T05:10:37.462Z,1012.06
2018-12-12T05:11:37.474Z,1012.03
2018-12-12T05:12:37.491Z,1012.05
2018-12-12T05:13:37.505Z,1012.02
2018-12-12T05:14:37.533Z,1012.05
2018-12-12T05:15:37.630Z,1012.05
2018-12-12T05:16:37.595Z,1012.01
2018-12-12T05:17:37.556Z,1011.99
2018-12-12T05:18:37.560Z,1012.04
2018-12-12T05:19:37.573Z,1012.06
2018-12-12T05:20:37.587Z,1012.02
2018-12-12T05:21:37.598Z,1012.05
2018-12-12T05:22:37.611Z,1012.06
2018-12-12T05:23:37.640Z,1012.04
2018-12-12T05:24:37.639Z,1012.04
2018-12-12T05:25:37.673Z,1012.02
2018-12-12T05:26:37.676Z,1011.98
2018-12-12T05:27:37.677Z,1012.01
2018-12-12T05:28:37.729Z,1011.96
2018-12-12T05:29:37.719Z,1011.98
2018-12-12T05:30:37.719Z,1011.98
2018-12-12T05:31:37.730Z,1011.99
2018-12-12T05:33:37.759Z,1012.04
2018-12-12T05:34:37.764Z,1011.98
2018-12-12T05:35:37.774Z,1011.96
2018-12-12T05:36:37.783Z,1012.02
2018-12-12T05:37:37.817Z,1011.99
2018-12-12T05:38:37.815Z,1012.01
2018-12-12T05:39:37.838Z,1011.99
2018-12-12T05:40:37.856Z,1012.01
2018-12-12T05:41:37.855Z,1012.03
2018-12-12T05:42:37.941Z,1012.05
2018-12-12T05:43:37.874Z,1012.03
2018-12-12T05:44:37.908Z,1012.04
2018-12-12T05:45:37.966Z,1012.02
2018-12-12T05:46:41.794Z,1012.02
2018-12-12T05:47:37.972Z,1012.01
2018-12-12T05:48:37.964Z,1012.02
2018-12-12T05:49:37.976Z,1012.05
2018-12-12T05:50:37.963Z,1012.03
2018-12-12T05:51:37.977Z,1012.01
2018-12-12T05:52:37.987Z,1012.03
2018-12-12T05:53:38.013Z,1012.02
2018-12-12T05:54:38.129Z,1012.04
2018-12-12T05:55:38.023Z,1012.01
2018-12-12T05:56:38.044Z,1012.02
2018-12-12T05:57:38.085Z,1012.01
2018-12-12T05:58:38.073Z,1012.04
2018-12-12T05:59:38.101Z,1012.02
2018-12-12T06:00:38.143Z,1012.01
2018-12-12T06:01:38.229Z,1011.95
2018-12-12T06:02:38.134Z,1011.98
2018-12-12T06:03:38.122Z,1011.96
2018-12-12T06:04:38.135Z,1011.94
2018-12-12T06:05:38.155Z,1011.93
2018-12-12T06:06:38.231Z,1011.97
2018-12-12T06:08:38.310Z,1011.94
2018-12-12T06:09:38.219Z,1011.94
2018-12-12T06:10:38.233Z,1011.93
2018-12-12T06:11:38.917Z,1011.92
2018-12-12T06:12:38.242Z,1011.95
2018-12-12T06:13:38.298Z,1011.98
2018-12-12T06:14:38.266Z,1011.94
2018-12-12T06:15:38.277Z,1011.95
2018-12-12T06:16:38.304Z,1011.93
2018-12-12T06:17:38.449Z,1011.96
2018-12-12T06:18:38.301Z,1011.95
2018-12-12T06:19:38.322Z,1011.98
2018-12-12T06:20:38.333Z,1011.96
2018-12-12T06:22:38.357Z,1011.98
2018-12-12T06:23:38.364Z,1011.98
2018-12-12T06:24:38.391Z,1011.97
2018-12-12T06:25:38.392Z,1011.97
2018-12-12T06:26:38.405Z,1012.00
2018-12-12T06:27:38.417Z,1011.97
2018-12-12T06:28:38.441Z,1011.97
2018-12-12T06:30:38.454Z,1011.95
2018-12-12T06:31:38.472Z,1012.01
2018-12-12T06:32:38.476Z,1011.98
2018-12-12T06:33:38.491Z,1011.99
2018-12-12T06:34:38.568Z,1011.97
2018-12-12T06:35:38.518Z,1011.97
2018-12-12T06:36:38.529Z,1011.97
2018-12-12T06:37:38.539Z,1011.97
2018-12-12T06:38:38.554Z,1011.97
2018-12-12T06:39:38.573Z,1011.99
2018-12-12T06:40:38.577Z,1011.97
2018-12-12T06:41:38.599Z,1012.01
2018-12-12T06:42:38.607Z,1012.01
2018-12-12T06:43:38.615Z,1012.01
2018-12-12T06:44:38.635Z,1012.02
2018-12-12T06:45:38.649Z,1012.04
2018-12-12T06:46:38.657Z,1012.01
2018-12-12T06:47:38.660Z,1012.03
2018-12-12T06:48:38.682Z,1012.06
2018-12-12T06:49:38.686Z,1012.05
2018-12-12T06:50:38.720Z,1012.08
2018-12-12T06:51:38.780Z,1012.05
2018-12-12T06:52:38.730Z,1012.08
2018-12-12T06:53:38.742Z,1012.06
2018-12-12T06:54:38.753Z,1012.07
2018-12-12T06:55:38.762Z,1012.07
2018-12-12T06:56:38.776Z,1012.04
2018-12-12T06:57:38.789Z,1012.06
2018-12-12T06:58:38.796Z,1012.08
2018-12-12T06:59:38.807Z,1012.06
2018-12-12T07:00:38.823Z,1012.09
2018-12-12T07:01:38.836Z,1012.09
2018-12-12T07:02:38.855Z,1012.08
2018-12-12T07:03:38.870Z,1012.04
2018-12-12T07:04:38.901Z,1012.05
2018-12-12T07:05:38.884Z,1012.11
2018-12-12T07:06:38.903Z,1012.05
2018-12-12T07:07:38.914Z,1012.12
2018-12-12T07:08:38.951Z,1012.13
2018-12-12T07:09:38.931Z,1012.17
2018-12-12T07:10:38.945Z,1012.18
2018-12-12T07:11:38.963Z,1012.17
2018-12-12T07:12:38.971Z,1012.17
2018-12-12T07:13:38.985Z,1012.18
2018-12-12T07:14:39.000Z,1012.20
2018-12-12T07:15:39.008Z,1012.18
2018-12-12T07:16:39.023Z,1012.20
2018-12-12T07:17:39.035Z,1012.23
2018-12-12T07:19:39.051Z,1012.21
2018-12-12T07:20:39.067Z,1012.18
2018-12-12T07:21:39.095Z,1012.15
2018-12-12T07:22:39.094Z,1012.17
2018-12-12T07:23:39.113Z,1012.23
2018-12-12T07:24:39.120Z,1012.24
2018-12-12T07:25:39.141Z,1012.24
2018-12-12T07:26:39.143Z,1012.28
2018-12-12T07:27:39.169Z,1012.26
2018-12-12T07:28:39.164Z,1012.31
2018-12-12T07:29:39.195Z,1012.24
2018-12-12T07:30:39.196Z,1012.24
2018-12-12T07:31:39.204Z,1012.25
2018-12-12T07:32:39.240Z,1012.24
2018-12-12T07:33:39.227Z,1012.22
2018-12-12T07:34:39.251Z,1012.24
2018-12-12T07:35:39.259Z,1012.20
2018-12-12T07:36:39.320Z,1012.23
2018-12-12T07:37:39.284Z,1012.23
2018-12-12T07:38:39.296Z,1012.25
2018-12-12T07:39:39.307Z,1012.24
2018-12-12T07:40:39.318Z,1012.23
2018-12-12T07:41:39.332Z,1012.25
2018-12-12T07:42:39.346Z,1012.18
2018-12-12T07:43:39.351Z,1012.26
2018-12-12T07:44:39.377Z,1012.29
2018-12-12T07:45:39.377Z,1012.27
2018-12-12T07:46:39.396Z,1012.25
2018-12-12T07:47:39.401Z,1012.26
2018-12-12T07:48:39.432Z,1012.31
2018-12-12T07:49:39.425Z,1012.25
2018-12-12T07:50:39.437Z,1012.29
2018-12-12T07:51:39.455Z,1012.27
2018-12-12T07:52:39.471Z,1012.25
2018-12-12T07:53:39.531Z,1012.24
2018-12-12T07:54:39.491Z,1012.26
2018-12-12T07:55:39.501Z,1012.28
2018-12-12T07:56:39.514Z,1012.27
2018-12-12T07:57:39.534Z,1012.29
2018-12-12T07:58:39.536Z,1012.27
2018-12-12T07:59:39.559Z,1012.23
2018-12-12T08:00:39.567Z,1012.30
2018-12-12T08:01:39.580Z,1012.30
2018-12-12T08:02:39.590Z,1012.26
2018-12-12T08:03:39.608Z,1012.28
2018-12-12T08:04:39.610Z,1012.30
2018-12-12T08:05:39.637Z,1012.30
2018-12-12T08:06:39.645Z,1012.26
2018-12-12T08:07:39.653Z,1012.31
2018-12-12T08:08:39.669Z,1012.33
2018-12-12T08:09:39.692Z,1012.33
2018-12-12T08:10:39.691Z,1012.31
2018-12-12T08:11:39.711Z,1012.33
2018-12-12T08:12:39.711Z,1012.33
2018-12-12T08:13:39.732Z,1012.34
2018-12-12T08:14:39.740Z,1012.33
2018-12-12T08:15:39.756Z,1012.33
2018-12-12T08:16:39.771Z,1012.31
2018-12-12T08:17:39.780Z,1012.35
2018-12-12T08:18:39.793Z,1012.33
2018-12-12T08:19:39.796Z,1012.34
2018-12-12T08:20:39.816Z,1012.38
2018-12-12T08:21:39.833Z,1012.38
2018-12-12T08:22:39.842Z,1012.37
2018-12-12T08:23:39.856Z,1012.40
2018-12-12T08:24:39.864Z,1012.40
2018-12-12T08:25:39.879Z,1012.41
2018-12-12T08:26:39.900Z,1012.37
2018-12-12T08:27:39.919Z,1012.40
2018-12-12T08:28:39.919Z,1012.37
2018-12-12T08:29:39.943Z,1012.37
2018-12-12T08:30:39.940Z,1012.32
2018-12-12T08:31:39.966Z,1012.36
2018-12-12T08:32:39.967Z,1012.32
2018-12-12T08:33:39.996Z,1012.34
2018-12-12T08:34:40.003Z,1012.38
2018-12-12T08:35:40.006Z,1012.32
2018-12-12T08:36:40.018Z,1012.30
2018-12-12T08:37:40.036Z,1012.33
2018-12-12T08:38:40.038Z,1012.33
2018-12-12T08:39:40.060Z,1012.30
2018-12-12T08:40:40.097Z,1012.32
2018-12-12T08:41:40.081Z,1012.37
2018-12-12T08:42:40.092Z,1012.36
2018-12-12T08:43:40.126Z,1012.39
2018-12-12T08:44:40.154Z,1012.39
2018-12-12T08:45:40.142Z,1012.38
2018-12-12T08:46:40.152Z,1012.38
2018-12-12T08:47:40.165Z,1012.42
2018-12-12T08:49:40.185Z,1012.40
2018-12-12T08:50:40.190Z,1012.41
2018-12-12T08:51:40.207Z,1012.39
2018-12-12T08:52:40.231Z,1012.42
2018-12-12T08:53:40.234Z,1012.39
2018-12-12T08:54:40.289Z,1012.45
2018-12-12T08:55:40.265Z,1012.42
2018-12-12T08:56:40.290Z,1012.38
2018-12-12T08:57:40.283Z,1012.41
2018-12-12T08:58:40.298Z,1012.39
2018-12-12T08:59:40.314Z,1012.45
2018-12-12T09:00:40.338Z,1012.42
2018-12-12T09:01:40.371Z,1012.46
2018-12-12T09:02:40.352Z,1012.44
2018-12-12T09:03:40.368Z,1012.46
2018-12-12T09:04:40.373Z,1012.48
2018-12-12T09:05:40.385Z,1012.49
2018-12-12T09:06:40.400Z,1012.50
2018-12-12T09:07:40.451Z,1012.48
2018-12-12T09:08:40.426Z,1012.52
2018-12-12T09:09:40.437Z,1012.48
2018-12-12T09:10:40.447Z,1012.46
2018-12-12T09:11:40.458Z,1012.46
2018-12-12T09:12:40.563Z,1012.45
2018-12-12T09:13:40.481Z,1012.45
2018-12-12T09:14:40.500Z,1012.48
2018-12-12T09:15:40.529Z,1012.45
2018-12-12T09:16:40.527Z,1012.49
2018-12-12T09:17:40.539Z,1012.50
2018-12-12T09:18:40.566Z,1012.51
2018-12-12T09:19:40.564Z,1012.50
2018-12-12T09:20:40.591Z,1012.51
2018-12-12T09:21:40.587Z,1012.53
2018-12-12T09:22:40.599Z,1012.53
2018-12-12T09:24:40.647Z,1012.56
2018-12-12T09:25:40.637Z,1012.50
2018-12-12T09:26:40.664Z,1012.51
2018-12-12T09:27:40.677Z,1012.49
2018-12-12T09:28:40.691Z,1012.52
2018-12-12T09:29:40.726Z,1012.58
2018-12-12T09:30:40.705Z,1012.48
2018-12-12T09:31:40.715Z,1012.50
2018-12-12T09:32:40.751Z,1012.49
2018-12-12T09:33:40.752Z,1012.50
2018-12-12T09:34:40.764Z,1012.47
2018-12-12T09:35:40.781Z,1012.47
2018-12-12T09:36:40.798Z,1012.45
2018-12-12T09:38:40.812Z,1012.48
2018-12-12T09:39:40.833Z,1012.48
2018-12-12T09:40:40.845Z,1012.46
2018-12-12T09:41:40.857Z,1012.48
2018-12-12T09:42:40.873Z,1012.41
2018-12-12T09:43:40.892Z,1012.47
2018-12-12T09:44:40.940Z,1012.49
2018-12-12T09:45:40.912Z,1012.45
2018-12-12T09:46:40.925Z,1012.47
2018-12-12T09:47:40.950Z,1012.49
2018-12-12T09:48:40.966Z,1012.44
2018-12-12T09:49:40.974Z,1012.45
2018-12-12T09:51:41.000Z,1012.43
2018-12-12T09:52:41.011Z,1012.40
2018-12-12T09:53:41.019Z,1012.43
2018-12-12T09:54:41.035Z,1012.38
2018-12-12T09:55:41.048Z,1012.41
2018-12-12T09:56:41.060Z,1012.37
2018-12-12T09:57:41.077Z,1012.33
2018-12-12T09:58:41.089Z,1012.37
2018-12-12T09:59:41.105Z,1012.33
2018-12-12T10:00:41.114Z,1012.35
2018-12-12T10:01:41.153Z,1012.28
2018-12-12T10:02:41.141Z,1012.30
2018-12-12T10:03:41.201Z,1012.32
2018-12-12T10:04:41.182Z,1012.32
2018-12-12T10:05:41.188Z,1012.32
2018-12-12T10:06:41.208Z,1012.32
2018-12-12T10:07:41.227Z,1012.34
2018-12-12T10:08:41.229Z,1012.33
2018-12-12T10:09:41.248Z,1012.34
2018-12-12T10:10:41.251Z,1012.31
2018-12-12T10:11:41.265Z,1012.30
2018-12-12T10:12:41.282Z,1012.30
2018-12-12T10:13:41.303Z,1012.25
2018-12-12T10:14:41.354Z,1012.24
2018-12-12T10:15:41.331Z,1012.21
2018-12-12T10:16:41.341Z,1012.19
2018-12-12T10:17:41.351Z,1012.23
2018-12-12T10:18:41.361Z,1012.17
2018-12-12T10:19:41.380Z,1012.21
2018-12-12T10:20:41.400Z,1012.19
2018-12-12T10:21:41.415Z,1012.19
2018-12-12T10:22:41.429Z,1012.17
2018-12-12T10:23:41.431Z,1012.09
2018-12-12T10:24:41.457Z,1012.16
2018-12-12T10:25:41.458Z,1012.11
2018-12-12T10:26:41.475Z,1012.08
2018-12-12T10:27:41.487Z,1012.07
2018-12-12T10:28:41.547Z,1012.09
2018-12-12T10:29:41.523Z,1012.07
2018-12-12T10:30:41.535Z,1012.06
2018-12-12T10:31:41.669Z,1012.07
2018-12-12T10:32:41.578Z,1012.08
2018-12-12T10:33:41.574Z,1012.04
2018-12-12T10:34:41.585Z,1012.05
2018-12-12T10:35:41.599Z,1012.04
2018-12-12T10:36:41.616Z,1012.07
2018-12-12T10:37:41.626Z,1012.04
2018-12-12T10:38:41.641Z,1012.07
2018-12-12T10:39:41.672Z,1012.11
2018-12-12T10:40:41.670Z,1012.10
2018-12-12T10:41:41.688Z,1012.16
2018-12-12T10:42:41.703Z,1012.15
2018-12-12T10:43:41.723Z,1012.07
2018-12-12T10:44:41.758Z,1012.09
2018-12-12T10:45:41.751Z,1012.06
2018-12-12T10:46:41.787Z,1012.06
2018-12-12T10:47:41.799Z,1012.05
2018-12-12T10:48:41.788Z,1012.04
2018-12-12T10:49:41.811Z,1012.08
2018-12-12T10:50:41.826Z,1012.02
2018-12-12T10:51:41.845Z,1012.09
2018-12-12T10:52:41.857Z,1012.07
2018-12-12T10:53:41.865Z,1012.04
2018-12-12T10:54:41.913Z,1012.09
2018-12-12T10:55:41.894Z,1012.06
2018-12-12T10:56:41.919Z,1012.02
2018-12-12T10:57:41.930Z,1012.06
2018-12-12T10:58:41.938Z,1012.01
2018-12-12T10:59:42.070Z,1012.03
2018-12-12T11:00:42.050Z,1012.01
2018-12-12T11:01:41.992Z,1011.97
2018-12-12T11:02:42.015Z,1012.00
2018-12-12T11:03:44.254Z,1012.03
2018-12-12T11:04:42.041Z,1012.00
2018-12-12T11:05:42.053Z,1011.97
2018-12-12T11:06:42.062Z,1012.00
2018-12-12T11:07:42.077Z,1011.98
2018-12-12T11:08:42.092Z,1012.04
2018-12-12T11:09:42.181Z,1012.02
2018-12-12T11:10:42.123Z,1012.03
2018-12-12T11:11:42.134Z,1012.02
2018-12-12T11:12:42.155Z,1012.01
2018-12-12T11:13:42.177Z,1012.04
2018-12-12T11:14:42.190Z,1012.01
2018-12-12T11:15:42.196Z,1012.02
2018-12-12T11:16:42.230Z,1011.99
2018-12-12T11:17:42.221Z,1011.96
2018-12-12T11:18:42.230Z,1011.96
2018-12-12T11:19:42.254Z,1011.95
2018-12-12T11:20:42.260Z,1011.95
2018-12-12T11:21:42.281Z,1011.92
2018-12-12T11:22:42.291Z,1011.89
2018-12-12T11:23:42.300Z,1011.87
2018-12-12T11:24:42.320Z,1011.84
2018-12-12T11:25:42.336Z,1011.85
2018-12-12T11:26:42.350Z,1011.87
2018-12-12T11:27:42.353Z,1011.89
2018-12-12T11:28:42.375Z,1011.86
2018-12-12T11:29:42.386Z,1011.89
2018-12-12T11:30:42.397Z,1011.83
2018-12-12T11:31:42.410Z,1011.85
2018-12-12T11:32:42.429Z,1011.85
2018-12-12T11:33:42.461Z,1011.86
2018-12-12T11:34:42.461Z,1011.81
2018-12-12T11:35:42.471Z,1011.78
2018-12-12T11:36:42.487Z,1011.79
2018-12-12T11:37:42.507Z,1011.82
2018-12-12T11:38:42.507Z,1011.79
2018-12-12T11:39:42.534Z,1011.79
2018-12-12T11:40:42.566Z,1011.76
2018-12-12T11:41:42.557Z,1011.77
2018-12-12T11:42:42.561Z,1011.78
2018-12-12T11:43:42.576Z,1011.77
2018-12-12T11:44:42.677Z,1011.79
2018-12-12T11:45:42.606Z,1011.77
2018-12-12T11:46:42.623Z,1011.80
2018-12-12T11:47:42.627Z,1011.73
2018-12-12T11:48:42.645Z,1011.76
2018-12-12T11:49:42.657Z,1011.78
2018-12-12T11:50:42.675Z,1011.73
2018-12-12T11:51:42.709Z,1011.74
2018-12-12T11:52:42.697Z,1011.72
2018-12-12T11:53:42.716Z,1011.70
2018-12-12T11:54:42.725Z,1011.67
2018-12-12T11:55:42.737Z,1011.67
2018-12-12T11:56:42.751Z,1011.68
2018-12-12T11:57:42.761Z,1011.66
2018-12-12T11:58:42.774Z,1011.63
2018-12-12T11:59:42.801Z,1011.67
2018-12-12T12:00:42.800Z,1011.61
2018-12-12T12:01:42.925Z,1011.64
2018-12-12T12:02:42.824Z,1011.65
2018-12-12T12:03:42.844Z,1011.62
2018-12-12T12:04:42.865Z,1011.57
2018-12-12T12:05:42.871Z,1011.56
2018-12-12T12:06:42.894Z,1011.54
2018-12-12T12:07:42.903Z,1011.48
2018-12-12T12:08:42.904Z,1011.48
2018-12-12T12:09:42.927Z,1011.42
2018-12-12T12:10:42.936Z,1011.43
2018-12-12T12:11:42.954Z,1011.45
2018-12-12T12:12:42.968Z,1011.42
2018-12-12T12:13:42.979Z,1011.41
2018-12-12T12:14:43.017Z,1011.41
2018-12-12T12:15:43.004Z,1011.35
2018-12-12T12:16:43.022Z,1011.35
2018-12-12T12:17:43.034Z,1011.31
2018-12-12T12:18:43.079Z,1011.33
2018-12-12T12:19:43.060Z,1011.34
2018-12-12T12:20:43.080Z,1011.30
2018-12-12T12:21:43.087Z,1011.33
2018-12-12T12:22:43.103Z,1011.34